Monday, October 16, 2017, 5:55 PM EDT
Back to Local

KMTP, Montauk Airport

Location: Montauk, NY, United States Lat: 41.067
Local Time: 5:55 PM EDT (21:55 GMT) Lon: -71.917
Time Zone: US/Eastern Elev: 6 ft

Show me the last for .
Show Decoded

2017-10-16 16:54 METAR KMTP 162054Z AUTO 33010G17KT 13/07 A3000 RMK AO1 SLP159 T01330067 50014 =
2017-10-16 14:54 METAR KMTP 161854Z AUTO 33011KT 14/07 A2997 RMK AO1 SLP147 T01390072 =
2017-10-16 13:54 METAR KMTP 161754Z AUTO 33009KT 14/07 A2996 RMK AO1 SLP144 T01390072 10167 20139
                 58005 =
2017-10-16 12:54 METAR KMTP 161654Z AUTO 33010KT 14/08 A2998 RMK AO1 SLP150 T01440078 =
2017-10-16 11:54 METAR KMTP 161554Z AUTO 32008KT 15/07 A2996 RMK AO1 SLP145 T01500072 =
2017-10-16 10:54 METAR KMTP 161454Z AUTO 33011G18KT 16/08 A2997 RMK AO1 SLP149 T01560078 51029 =
2017-10-16 09:54 METAR KMTP 161354Z AUTO 33010KT 16/09 A2996 RMK AO1 SLP145 T01560089 =
2017-10-16 08:54 METAR KMTP 161254Z AUTO 34012KT 16/09 A2992 RMK AO1 SLP132 T01610089 =
2017-10-16 07:54 METAR KMTP 161154Z AUTO 32009KT 17/12 A2989 RMK AO1 SLP120 T01670122 10206 20161
                 53026 =
2017-10-16 06:54 METAR KMTP 161054Z AUTO 33007KT 18/15 A2985 RMK AO1 SLP107 T01830150 =
2017-10-16 05:54 METAR KMTP 160954Z AUTO 30008KT 19/15 A2983 RMK AO1 SLP099 T01940150 =
2017-10-16 04:54 METAR KMTP 160854Z AUTO 29007KT 20/17 A2981 RMK AO1 SLP093 T02000172 55006 =
2017-10-16 03:54 METAR KMTP 160754Z AUTO 25007KT 20/19 A2979 RMK AO1 SLP088 T02000194 =
2017-10-16 02:54 METAR KMTP 160654Z AUTO 22006KT 20/19 A2979 RMK AO1 SLP087 T02000194 =
2017-10-16 01:54 METAR KMTP 160554Z AUTO 25009G16KT 19/19 A2983 RMK AO1 SLP100 T01940189 10194
                 20194 55006 =
2017-10-16 00:54 METAR KMTP 160454Z AUTO 23008G19KT 190V250 19/19 A2982 RMK AO1 SLP096 T01940189
                 402110172 =
2017-10-15 23:54 METAR KMTP 160354Z AUTO 23011G20KT 19/19 A2982 RMK AO1 SLP099 T01940189 =
2017-10-15 22:54 METAR KMTP 160254Z AUTO 22010G18KT 19/18 A2984 RMK AO1 SLP106 T01940183 55008 =
2017-10-15 21:54 METAR KMTP 160154Z AUTO 21010G18KT 19/18 A2984 RMK AO1 SLP104 T01940183 =
2017-10-15 20:54 METAR KMTP 160054Z AUTO 22009G23KT 19/18 A2985 RMK AO1 SLP109 T01940183 =
2017-10-15 19:54 METAR KMTP 152354Z AUTO 22009G17KT 19/18 A2987 RMK AO1 SLP114 T01940183 10200
                 20194 56011 =
2017-10-15 18:54 METAR KMTP 152254Z AUTO 21010G19KT 19/18 A2987 RMK AO1 SLP114 T01940183 =

Support USWX by starting your Amazon purchase here.